createdAt,value
2019-05-29T00:00:16.204Z,100490.25
2019-05-29T00:02:49.122Z,100495.11
2019-05-29T00:05:22.007Z,100499.06
2019-05-29T00:07:54.843Z,100497.30
2019-05-29T00:10:27.804Z,100503.48
2019-05-29T00:13:00.737Z,100511.40
2019-05-29T00:15:33.672Z,100509.20
2019-05-29T00:18:06.835Z,100510.10
2019-05-29T00:20:39.746Z,100520.66
2019-05-29T00:23:13.176Z,100522.88
2019-05-29T00:25:46.053Z,100529.89
2019-05-29T00:28:18.916Z,100538.25
2019-05-29T00:30:51.774Z,100534.31
2019-05-29T00:33:24.609Z,100540.47
2019-05-29T00:35:57.526Z,100536.52
2019-05-29T00:38:30.395Z,100540.05
2019-05-29T00:41:03.272Z,100541.81
2019-05-29T00:43:36.145Z,100544.44
2019-05-29T00:46:09.319Z,100548.85
2019-05-29T00:48:42.197Z,100553.22
2019-05-29T00:51:15.158Z,100555.87
2019-05-29T00:53:47.971Z,100564.64
2019-05-29T00:56:20.789Z,100560.24
2019-05-29T00:58:53.600Z,100561.55
2019-05-29T01:01:26.421Z,100562.02
2019-05-29T01:03:59.394Z,100562.86
2019-05-29T01:06:32.140Z,100565.92
2019-05-29T01:09:06.189Z,100570.75
2019-05-29T01:11:39.006Z,100577.80
2019-05-29T01:14:13.007Z,100577.36
2019-05-29T01:16:46.024Z,100591.39
2019-05-29T01:19:25.436Z,100584.35
2019-05-29T01:21:58.744Z,100592.25
2019-05-29T01:24:31.533Z,100592.69
2019-05-29T01:27:04.509Z,100594.44
2019-05-29T01:29:37.294Z,100587.41
2019-05-29T01:32:10.164Z,100594.86
2019-05-29T01:34:43.011Z,100593.09
2019-05-29T01:37:16.130Z,100600.12
2019-05-29T01:39:50.094Z,100604.48
2019-05-29T01:42:24.350Z,100614.96
2019-05-29T01:45:07.122Z,100618.05
2019-05-29T01:47:31.688Z,100622.83
2019-05-29T01:50:04.479Z,100625.04
2019-05-29T01:52:37.376Z,100626.77
2019-05-29T01:55:10.635Z,100630.74
2019-05-29T01:57:43.490Z,100629.83
2019-05-29T02:00:17.789Z,100633.80
2019-05-29T02:02:51.375Z,100639.95
2019-05-29T02:05:24.237Z,100643.42
2019-05-29T02:07:57.123Z,100646.94
2019-05-29T02:10:29.979Z,100652.16
2019-05-29T02:13:02.780Z,100649.97
2019-05-29T02:15:35.761Z,100657.84
2019-05-29T02:18:08.631Z,100654.32
2019-05-29T02:20:44.551Z,100667.87
2019-05-29T02:23:17.783Z,100669.61
2019-05-29T02:25:50.540Z,100684.48
2019-05-29T02:28:24.580Z,100697.21
2019-05-29T02:30:57.474Z,100701.17
2019-05-29T02:33:30.220Z,100711.31
2019-05-29T02:36:03.077Z,100710.45
2019-05-29T02:38:35.850Z,100726.68
2019-05-29T02:41:08.733Z,100725.80
2019-05-29T02:43:41.519Z,100723.17
2019-05-29T02:46:14.281Z,100720.05
2019-05-29T02:48:47.127Z,100724.02
2019-05-29T02:51:19.895Z,100731.89
2019-05-29T02:53:52.708Z,100729.27
2019-05-29T02:56:26.906Z,100733.61
2019-05-29T02:58:59.974Z,100746.27
2019-05-29T03:01:32.948Z,100746.74
2019-05-29T03:04:05.745Z,100751.11
2019-05-29T03:06:38.935Z,100752.84
2019-05-29T03:09:11.690Z,100754.59
2019-05-29T03:11:44.963Z,100765.58
2019-05-29T03:14:17.804Z,100767.74
2019-05-29T03:16:50.647Z,100777.38
2019-05-29T03:19:23.891Z,100777.42
2019-05-29T03:21:56.770Z,100782.22
2019-05-29T03:24:30.836Z,100778.66
2019-05-29T03:27:04.152Z,100782.21
2019-05-29T03:29:38.491Z,100781.73
2019-05-29T03:32:14.057Z,100790.94
2019-05-29T03:34:47.610Z,100807.17
2019-05-29T03:37:20.992Z,100802.77
2019-05-29T03:39:54.053Z,100797.96
2019-05-29T03:42:28.295Z,100813.87
2019-05-29T03:45:01.379Z,100810.00
2019-05-29T03:47:35.061Z,100813.24
2019-05-29T03:50:08.443Z,100812.98
2019-05-29T03:52:41.221Z,100814.77
2019-05-29T03:55:13.996Z,100814.84
2019-05-29T03:57:46.875Z,100811.33
2019-05-29T04:00:19.840Z,100821.00
2019-05-29T04:02:52.739Z,100824.05
2019-05-29T04:05:26.845Z,100831.94
2019-05-29T04:07:59.796Z,100831.00
2019-05-29T04:10:35.520Z,100829.06
2019-05-29T04:13:07.658Z,100836.52
2019-05-29T04:15:42.147Z,100838.78
2019-05-29T04:18:19.242Z,100849.84
2019-05-29T04:20:50.674Z,100854.16
2019-05-29T04:23:25.484Z,100853.36
2019-05-29T04:25:59.455Z,100851.19
2019-05-29T04:28:34.743Z,100859.12
2019-05-29T04:31:08.059Z,100852.56
2019-05-29T04:33:40.871Z,100868.07
2019-05-29T04:36:13.705Z,100874.69
2019-05-29T04:38:46.480Z,100877.80
2019-05-29T04:41:19.265Z,100886.53
2019-05-29T04:43:52.089Z,100887.48
2019-05-29T04:46:24.896Z,100900.72
2019-05-29T04:48:57.921Z,100899.82
2019-05-29T04:51:31.232Z,100901.06
2019-05-29T04:54:04.207Z,100900.20
2019-05-29T04:56:37.063Z,100901.08
2019-05-29T04:59:10.009Z,100902.45
2019-05-29T05:01:42.812Z,100913.55
2019-05-29T05:04:15.662Z,100911.41
2019-05-29T05:06:48.514Z,100918.05
2019-05-29T05:09:21.349Z,100924.68
2019-05-29T05:11:54.918Z,100932.18
2019-05-29T05:14:27.746Z,100940.56
2019-05-29T05:17:00.636Z,100941.91
2019-05-29T05:19:33.940Z,100943.70
2019-05-29T05:22:08.417Z,100938.41
2019-05-29T05:24:43.950Z,100950.77
2019-05-29T05:27:15.829Z,100962.67
2019-05-29T05:29:48.698Z,100968.82
2019-05-29T05:32:21.524Z,100972.79
2019-05-29T05:34:54.642Z,100976.31
2019-05-29T05:37:27.411Z,100982.05
2019-05-29T05:40:00.296Z,100991.27
2019-05-29T05:42:33.061Z,101004.03
2019-05-29T05:45:06.194Z,101018.12
2019-05-29T05:47:50.435Z,101024.31
2019-05-29T05:50:14.377Z,101022.17
2019-05-29T05:52:47.151Z,101035.39
2019-05-29T05:55:20.182Z,101037.12
2019-05-29T05:57:53.031Z,101029.98
2019-05-29T06:00:35.837Z,101038.26
2019-05-29T06:03:09.342Z,101034.19
2019-05-29T06:05:42.349Z,101033.27
2019-05-29T06:08:15.293Z,101042.20
2019-05-29T06:10:51.106Z,101048.32
2019-05-29T06:13:23.690Z,101043.39
2019-05-29T06:15:56.704Z,101038.09
2019-05-29T06:18:29.528Z,101036.80
2019-05-29T06:21:02.722Z,101044.16
2019-05-29T06:23:36.897Z,101043.67
2019-05-29T06:26:09.978Z,101048.14
2019-05-29T06:28:43.479Z,101046.17
2019-05-29T06:31:16.493Z,101045.20
2019-05-29T06:33:49.250Z,101052.26
2019-05-29T06:36:22.194Z,101059.83
2019-05-29T06:38:55.134Z,101057.84
2019-05-29T06:41:28.279Z,101066.40
2019-05-29T06:44:01.217Z,101071.89
2019-05-29T06:46:34.398Z,101070.06
2019-05-29T06:49:07.190Z,101080.36
2019-05-29T06:51:41.253Z,101080.60
2019-05-29T06:54:14.304Z,101082.66
2019-05-29T06:56:48.013Z,101088.08
2019-05-29T06:59:20.913Z,101092.27
2019-05-29T07:01:53.770Z,101088.46
2019-05-29T07:04:26.722Z,101091.05
2019-05-29T07:06:59.607Z,101103.09
2019-05-29T07:09:32.418Z,101102.70
2019-05-29T07:12:05.287Z,101106.53
2019-05-29T07:14:38.210Z,101116.76
2019-05-29T07:17:11.064Z,101110.50
2019-05-29T07:19:57.466Z,101113.73
2019-05-29T07:22:18.569Z,101114.18
2019-05-29T07:24:51.334Z,101113.34
2019-05-29T07:27:24.157Z,101117.28
2019-05-29T07:29:57.054Z,101116.84
2019-05-29T07:32:29.954Z,101115.82
2019-05-29T07:35:04.101Z,101119.25
2019-05-29T07:37:39.542Z,101123.86
2019-05-29T07:40:14.138Z,101122.89
2019-05-29T07:42:55.076Z,101130.14
2019-05-29T07:45:23.152Z,101123.48
2019-05-29T07:47:56.477Z,101137.83
2019-05-29T07:50:29.351Z,101139.05
2019-05-29T07:53:02.247Z,101137.64
2019-05-29T07:55:35.063Z,101149.16
2019-05-29T07:58:07.964Z,101147.77
2019-05-29T08:01:03.765Z,101145.28
2019-05-29T08:03:15.504Z,101145.99
2019-05-29T08:05:51.536Z,101143.80
2019-05-29T08:08:22.829Z,101156.05
2019-05-29T08:10:56.788Z,101160.44
2019-05-29T08:13:29.597Z,101167.41
2019-05-29T08:16:03.418Z,101176.84
2019-05-29T08:18:36.583Z,101183.55
2019-05-29T08:21:09.460Z,101181.77
2019-05-29T08:23:42.351Z,101177.55
2019-05-29T08:26:15.100Z,101189.77
2019-05-29T08:28:48.947Z,101189.06
2019-05-29T08:31:21.835Z,101191.45
2019-05-29T08:33:54.598Z,101190.38
2019-05-29T08:36:27.474Z,101189.98
2019-05-29T08:39:00.247Z,101209.08
2019-05-29T08:41:33.202Z,101207.34
2019-05-29T08:44:06.060Z,101214.50
2019-05-29T08:46:38.958Z,101215.42
2019-05-29T08:49:11.837Z,101207.16
2019-05-29T08:51:46.023Z,101209.48
2019-05-29T08:54:23.809Z,101218.08
2019-05-29T08:56:53.355Z,101228.27
2019-05-29T08:59:26.099Z,101223.20
2019-05-29T09:01:58.891Z,101211.31
2019-05-29T09:04:32.064Z,101222.36
2019-05-29T09:07:04.983Z,101230.05
2019-05-29T09:09:37.848Z,101228.47
2019-05-29T09:12:11.393Z,101218.52
2019-05-29T09:14:44.174Z,101225.80
2019-05-29T09:17:18.400Z,101221.77
2019-05-29T09:19:51.345Z,101231.75
2019-05-29T09:22:25.269Z,101216.66
2019-05-29T09:24:58.073Z,101224.27
2019-05-29T09:27:30.881Z,101231.27
2019-05-29T09:30:06.220Z,101231.44
2019-05-29T09:32:50.414Z,101229.14
2019-05-29T09:35:16.072Z,101240.59
2019-05-29T09:37:49.111Z,101247.53
2019-05-29T09:40:23.073Z,101246.48
2019-05-29T09:42:56.217Z,101249.63
2019-05-29T09:45:33.392Z,101248.72
2019-05-29T09:48:06.537Z,101251.61
2019-05-29T09:50:50.024Z,101257.36
2019-05-29T09:53:15.680Z,101257.66
2019-05-29T09:55:48.669Z,101269.84
2019-05-29T09:58:21.432Z,101278.03
2019-05-29T10:01:16.200Z,101266.63
2019-05-29T10:03:28.890Z,101254.86
2019-05-29T10:06:01.661Z,101257.18
2019-05-29T10:08:34.449Z,101260.80
2019-05-29T10:11:15.569Z,101270.07
2019-05-29T10:13:48.335Z,101278.84
2019-05-29T10:16:21.217Z,101268.83
2019-05-29T10:18:54.259Z,101265.97
2019-05-29T10:21:39.191Z,101275.40
2019-05-29T10:24:04.157Z,101284.41
2019-05-29T10:26:37.399Z,101286.81
2019-05-29T10:29:10.388Z,101297.43
2019-05-29T10:31:46.828Z,101291.33
2019-05-29T10:34:17.985Z,101296.44
2019-05-29T10:36:53.570Z,101294.87
2019-05-29T10:39:25.421Z,101310.66
2019-05-29T10:41:58.268Z,101311.25
2019-05-29T10:44:31.083Z,101306.80
2019-05-29T10:47:03.914Z,101315.23
2019-05-29T10:49:36.792Z,101323.66
2019-05-29T10:52:16.162Z,101324.67
2019-05-29T10:54:44.147Z,101325.64
2019-05-29T10:57:17.165Z,101322.64
2019-05-29T10:59:50.853Z,101322.42
2019-05-29T11:02:23.752Z,101321.38
2019-05-29T11:04:59.338Z,101329.41
2019-05-29T11:07:31.654Z,101333.20
2019-05-29T11:10:04.701Z,101335.00
2019-05-29T11:12:39.504Z,101340.11
2019-05-29T11:15:21.485Z,101348.65
2019-05-29T11:17:47.147Z,101352.19
2019-05-29T11:20:21.973Z,101345.54
2019-05-29T11:22:55.670Z,101354.50
2019-05-29T11:25:28.922Z,101353.22
2019-05-29T11:28:01.730Z,101345.76
2019-05-29T11:30:34.667Z,101348.03
2019-05-29T11:33:07.496Z,101359.14
2019-05-29T11:35:57.240Z,101352.23
2019-05-29T11:38:15.085Z,101354.53
2019-05-29T11:40:48.229Z,101353.83
2019-05-29T11:43:21.492Z,101352.99
2019-05-29T11:45:55.189Z,101354.36
2019-05-29T11:48:28.177Z,101352.72
2019-05-29T11:51:01.030Z,101351.34
2019-05-29T11:53:33.826Z,101354.11
2019-05-29T11:56:07.062Z,101352.39
2019-05-29T11:58:39.965Z,101355.84
2019-05-29T12:01:13.187Z,101355.40
2019-05-29T12:04:09.015Z,101366.86
2019-05-29T12:06:20.530Z,101360.58
2019-05-29T12:08:53.686Z,101357.73
2019-05-29T12:11:26.730Z,101363.95
2019-05-29T12:14:00.489Z,101370.96
2019-05-29T12:16:33.910Z,101372.68
2019-05-29T12:19:07.825Z,101376.53
2019-05-29T12:21:42.788Z,101378.14
2019-05-29T12:24:15.272Z,101380.11
2019-05-29T12:26:48.144Z,101378.42
2019-05-29T12:29:20.953Z,101382.81
2019-05-29T12:31:54.907Z,101379.98
2019-05-29T12:34:27.903Z,101382.69
2019-05-29T12:37:01.897Z,101384.14
2019-05-29T12:39:34.953Z,101390.06
2019-05-29T12:42:08.055Z,101387.23
2019-05-29T12:44:40.868Z,101387.52
2019-05-29T12:47:13.968Z,101385.42
2019-05-29T12:49:46.842Z,101381.00
2019-05-29T12:52:19.825Z,101389.63
2019-05-29T12:54:53.950Z,101381.18
2019-05-29T12:57:26.790Z,101384.62
2019-05-29T13:00:00.317Z,101391.22
2019-05-29T13:02:33.204Z,101383.05
2019-05-29T13:05:16.049Z,101385.54
2019-05-29T13:07:44.446Z,101389.11
2019-05-29T13:10:30.241Z,101392.73
2019-05-29T13:13:02.406Z,101394.08
2019-05-29T13:15:29.447Z,101392.73
2019-05-29T13:18:06.247Z,101390.70
2019-05-29T13:20:36.880Z,101390.74
2019-05-29T13:23:10.933Z,101391.30
2019-05-29T13:25:43.870Z,101402.03
2019-05-29T13:28:16.819Z,101394.02
2019-05-29T13:30:49.600Z,101384.41
2019-05-29T13:33:22.688Z,101394.69
2019-05-29T13:35:56.246Z,101383.69
2019-05-29T13:38:29.336Z,101399.80
2019-05-29T13:41:04.620Z,101391.06
2019-05-29T13:43:37.538Z,101390.05
2019-05-29T13:46:10.450Z,101387.30
2019-05-29T13:48:43.605Z,101392.21
2019-05-29T13:51:16.504Z,101391.46
2019-05-29T13:54:02.681Z,101399.49
2019-05-29T13:56:24.440Z,101381.69
2019-05-29T13:58:57.841Z,101390.25
2019-05-29T14:01:31.018Z,101394.08
2019-05-29T14:04:05.179Z,101387.08
2019-05-29T14:06:38.567Z,101396.21
2019-05-29T14:09:11.575Z,101398.28
2019-05-29T14:11:44.557Z,101404.62
2019-05-29T14:14:18.070Z,101400.53
2019-05-29T14:16:51.130Z,101404.98
2019-05-29T14:19:23.956Z,101401.77
2019-05-29T14:21:57.119Z,101400.25
2019-05-29T14:24:30.557Z,101397.91
2019-05-29T14:27:03.652Z,101394.77
2019-05-29T14:29:36.441Z,101404.98
2019-05-29T14:32:09.412Z,101399.52
2019-05-29T14:34:42.265Z,101400.84
2019-05-29T14:37:15.117Z,101390.53
2019-05-29T14:39:47.975Z,101395.81
2019-05-29T14:42:20.777Z,101407.30
2019-05-29T14:44:53.530Z,101398.44
2019-05-29T14:47:26.499Z,101395.67
2019-05-29T14:49:59.373Z,101404.47
2019-05-29T14:52:32.306Z,101403.63
2019-05-29T14:55:06.770Z,101413.50
2019-05-29T14:57:39.649Z,101406.19
2019-05-29T15:00:22.836Z,101403.58
2019-05-29T15:02:48.933Z,101414.05
2019-05-29T15:05:22.057Z,101412.34
2019-05-29T15:07:54.917Z,101412.69
2019-05-29T15:10:27.976Z,101420.19
2019-05-29T15:13:00.876Z,101412.60
2019-05-29T15:15:34.163Z,101416.41
2019-05-29T15:18:07.128Z,101415.03
2019-05-29T15:20:40.044Z,101421.29
2019-05-29T15:23:13.528Z,101423.98
2019-05-29T15:25:46.392Z,101420.95
2019-05-29T15:28:19.294Z,101436.34
2019-05-29T15:30:52.134Z,101425.77
2019-05-29T15:33:25.324Z,101430.33
2019-05-29T15:35:58.227Z,101431.52
2019-05-29T15:38:31.060Z,101428.26
2019-05-29T15:41:03.833Z,101426.93
2019-05-29T15:43:36.887Z,101444.23
2019-05-29T15:46:10.491Z,101444.53
2019-05-29T15:48:44.280Z,101446.79
2019-05-29T15:51:21.732Z,101444.95
2019-05-29T15:53:53.529Z,101452.64
2019-05-29T15:56:28.160Z,101445.49
2019-05-29T15:59:01.435Z,101446.52
2019-05-29T16:01:34.277Z,101441.22
2019-05-29T16:04:09.510Z,101442.62
2019-05-29T16:06:42.714Z,101448.02
2019-05-29T16:09:16.339Z,101446.18
2019-05-29T16:11:49.572Z,101446.59
2019-05-29T16:14:25.364Z,101442.17
2019-05-29T16:16:59.715Z,101447.65
2019-05-29T16:19:32.807Z,101453.94
2019-05-29T16:22:05.847Z,101448.09
2019-05-29T16:24:39.390Z,101449.52
2019-05-29T16:27:12.276Z,101453.64
2019-05-29T16:29:45.157Z,101455.92
2019-05-29T16:32:18.041Z,101462.50
2019-05-29T16:34:50.891Z,101452.84
2019-05-29T16:37:23.704Z,101460.17
2019-05-29T16:39:56.745Z,101460.23
2019-05-29T16:42:29.693Z,101470.00
2019-05-29T16:45:04.142Z,101465.55
2019-05-29T16:47:37.108Z,101465.50
2019-05-29T16:50:14.984Z,101470.80
2019-05-29T16:53:42.729Z,101472.09
2019-05-29T16:56:26.058Z,101479.81
2019-05-29T16:58:59.053Z,101484.25
2019-05-29T17:01:37.880Z,101486.48
2019-05-29T17:04:11.140Z,101487.90
2019-05-29T17:06:44.159Z,101479.92
2019-05-29T17:09:24.431Z,101481.59
2019-05-29T17:11:58.035Z,101488.29
2019-05-29T17:14:32.081Z,101487.36
2019-05-29T17:17:05.057Z,101493.17
2019-05-29T17:19:41.688Z,101494.95
2019-05-29T17:22:14.899Z,101502.53
2019-05-29T17:24:54.001Z,101504.35
2019-05-29T17:27:27.411Z,101504.00
2019-05-29T17:30:07.077Z,101509.39
2019-05-29T17:32:48.457Z,101512.45
2019-05-29T17:35:26.198Z,101513.86
2019-05-29T17:38:12.650Z,101512.16
2019-05-29T17:40:53.627Z,101516.62
2019-05-29T17:43:45.246Z,101526.88
2019-05-29T17:46:22.026Z,101527.28
2019-05-29T17:49:30.343Z,101526.39
2019-05-29T17:52:04.593Z,101533.48
2019-05-29T17:55:36.727Z,101534.39
2019-05-29T17:59:00.397Z,101533.53
2019-05-29T18:01:20.216Z,101535.77
2019-05-29T18:04:12.078Z,101534.04
2019-05-29T18:06:48.659Z,101542.88
2019-05-29T18:09:39.963Z,101540.70
2019-05-29T18:12:17.120Z,101546.89
2019-05-29T18:14:52.422Z,101547.77
2019-05-29T18:17:58.437Z,101554.42
2019-05-29T18:21:38.597Z,101555.30
2019-05-29T18:24:24.201Z,101563.25
2019-05-29T18:27:00.200Z,101571.69
2019-05-29T18:29:42.024Z,101574.34
2019-05-29T18:32:47.539Z,101584.52
2019-05-29T18:35:45.036Z,101582.34
2019-05-29T18:38:38.284Z,101587.62
2019-05-29T18:41:24.406Z,101591.59
2019-05-29T18:44:04.295Z,101596.45
2019-05-29T18:50:15.764Z,101613.59
2019-05-29T18:53:09.655Z,101616.64
2019-05-29T18:55:37.936Z,101619.70
2019-05-29T18:58:41.322Z,101617.48
2019-05-29T19:01:31.734Z,101625.41
2019-05-29T19:04:06.608Z,101630.69
2019-05-29T19:07:04.122Z,101637.27
2019-05-29T19:10:06.215Z,101638.11
2019-05-29T19:13:01.682Z,101639.78
2019-05-29T19:25:33.062Z,101661.28
2019-05-29T19:28:06.552Z,101666.83
2019-05-29T19:30:40.147Z,101669.42
2019-05-29T19:33:13.435Z,101672.45
2019-05-29T19:35:46.847Z,101678.11
2019-05-29T19:38:19.898Z,101686.92
2019-05-29T19:40:53.080Z,101689.16
2019-05-29T19:43:26.440Z,101691.83
2019-05-29T19:45:59.676Z,101695.38
2019-05-29T19:48:33.458Z,101697.98
2019-05-29T19:51:07.148Z,101701.49
2019-05-29T19:53:40.523Z,101697.02
2019-05-29T19:56:13.732Z,101698.34
2019-05-29T19:58:47.177Z,101706.73
2019-05-29T20:01:30.790Z,101710.67
2019-05-29T20:03:56.030Z,101713.72
2019-05-29T20:06:30.997Z,101715.03
2019-05-29T20:09:07.266Z,101718.89
2019-05-29T20:11:40.433Z,101722.34
2019-05-29T20:14:13.576Z,101724.02
2019-05-29T20:16:46.611Z,101725.70
2019-05-29T20:19:19.749Z,101733.98
2019-05-29T20:21:52.821Z,101737.45
2019-05-29T20:24:26.768Z,101740.96
2019-05-29T20:26:59.834Z,101737.40
2019-05-29T20:29:38.560Z,101745.27
2019-05-29T20:32:11.833Z,101750.98
2019-05-29T20:34:44.806Z,101752.30
2019-05-29T20:37:17.899Z,101755.83
2019-05-29T20:39:50.955Z,101756.27
2019-05-29T20:42:24.115Z,101754.45
2019-05-29T20:44:57.016Z,101754.34
2019-05-29T20:47:30.068Z,101760.94
2019-05-29T20:50:03.693Z,101763.98
2019-05-29T20:52:37.407Z,101769.66
2019-05-29T20:55:10.734Z,101770.95
2019-05-29T20:57:43.772Z,101770.06
2019-05-29T21:00:18.844Z,101777.89
2019-05-29T21:02:52.563Z,101777.33
2019-05-29T21:05:25.500Z,101778.65
2019-05-29T21:07:58.464Z,101782.15
2019-05-29T21:10:32.995Z,101782.51
2019-05-29T21:13:06.290Z,101784.16
2019-05-29T21:15:39.786Z,101778.84
2019-05-29T21:18:13.335Z,101781.84
2019-05-29T21:20:46.435Z,101787.91
2019-05-29T21:23:19.569Z,101787.02
2019-05-29T21:25:58.252Z,101792.63
2019-05-29T21:28:40.755Z,101799.55
2019-05-29T21:31:06.914Z,101805.61
2019-05-29T21:33:43.906Z,101805.50
2019-05-29T21:36:14.560Z,101799.29
2019-05-29T21:38:47.456Z,101801.39
2019-05-29T21:41:20.331Z,101801.78
2019-05-29T21:43:54.342Z,101807.41
2019-05-29T21:46:27.461Z,101806.90
2019-05-29T21:49:00.402Z,101813.03
2019-05-29T21:51:33.415Z,101816.05
2019-05-29T21:54:06.578Z,101817.25
2019-05-29T21:56:39.523Z,101825.52
2019-05-29T21:59:12.643Z,101823.72
2019-05-29T22:01:46.295Z,101821.90
2019-05-29T22:04:19.337Z,101829.26
2019-05-29T22:06:52.437Z,101830.49
2019-05-29T22:09:25.456Z,101829.60
2019-05-29T22:11:58.600Z,101837.89
2019-05-29T22:14:31.980Z,101836.10
2019-05-29T22:17:06.051Z,101839.51
2019-05-29T22:19:39.046Z,101841.67
2019-05-29T22:22:12.081Z,101842.06
2019-05-29T22:24:45.149Z,101848.14
2019-05-29T22:27:18.017Z,101848.47
2019-05-29T22:29:51.968Z,101851.06
2019-05-29T22:32:25.499Z,101857.18
2019-05-29T22:34:59.503Z,101848.30
2019-05-29T22:37:32.881Z,101852.16
2019-05-29T22:40:06.103Z,101851.64
2019-05-29T22:42:38.985Z,101857.67
2019-05-29T22:45:12.142Z,101866.03
2019-05-29T22:47:45.340Z,101875.25
2019-05-29T22:50:18.468Z,101868.05
2019-05-29T22:52:51.752Z,101867.03
2019-05-29T22:55:24.871Z,101870.05
2019-05-29T22:57:58.018Z,101874.80
2019-05-29T23:00:34.259Z,101878.65
2019-05-29T23:03:07.284Z,101869.76
2019-05-29T23:05:40.558Z,101878.97
2019-05-29T23:08:13.647Z,101873.15
2019-05-29T23:10:46.614Z,101879.62
2019-05-29T23:13:19.756Z,101892.27
2019-05-29T23:15:54.471Z,101891.64
2019-05-29T23:18:27.655Z,101894.59
2019-05-29T23:21:00.651Z,101893.91
2019-05-29T23:23:34.061Z,101892.59
2019-05-29T23:26:07.129Z,101902.61
2019-05-29T23:28:40.154Z,101903.18
2019-05-29T23:31:13.139Z,101900.91
2019-05-29T23:33:46.216Z,101903.33
2019-05-29T23:36:19.086Z,101902.20
2019-05-29T23:38:53.124Z,101903.67
2019-05-29T23:41:26.318Z,101904.45
2019-05-29T23:43:59.532Z,101903.08
2019-05-29T23:46:32.525Z,101912.60
2019-05-29T23:49:05.417Z,101901.64
2019-05-29T23:51:38.287Z,101901.64
2019-05-29T23:54:12.134Z,101897.53
2019-05-29T23:56:44.905Z,101905.37
2019-05-29T23:59:17.816Z,101894.75
